sensor_id;sensor_type;location;lat;lon;timestamp;P1;durP1;ratioP1;P2;durP2;ratioP2
11189;SDS011;5651;50.926;4.718;2023-03-14T00:00:14;5.72;;;1.20;;
11189;SDS011;5651;50.926;4.718;2023-03-14T00:02:41;7.53;;;1.10;;
11189;SDS011;5651;50.926;4.718;2023-03-14T00:05:07;6.35;;;1.10;;
11189;SDS011;5651;50.926;4.718;2023-03-14T00:07:34;9.90;;;1.30;;
11189;SDS011;5651;50.926;4.718;2023-03-14T00:10:05;5.47;;;2.00;;
11189;SDS011;5651;50.926;4.718;2023-03-14T00:12:34;4.40;;;1.13;;
11189;SDS011;5651;50.926;4.718;2023-03-14T00:14:59;7.15;;;1.50;;
11189;SDS011;5651;50.926;4.718;2023-03-14T00:17:27;4.47;;;1.17;;
11189;SDS011;5651;50.926;4.718;2023-03-14T00:19:53;10.02;;;1.70;;
11189;SDS011;5651;50.926;4.718;2023-03-14T00:22:19;8.10;;;1.40;;
11189;SDS011;5651;50.926;4.718;2023-03-14T00:24:46;6.07;;;1.40;;
11189;SDS011;5651;50.926;4.718;2023-03-14T00:27:11;6.63;;;1.02;;
11189;SDS011;5651;50.926;4.718;2023-03-14T00:29:38;12.57;;;1.52;;
11189;SDS011;5651;50.926;4.718;2023-03-14T00:32:04;6.95;;;1.60;;
11189;SDS011;5651;50.926;4.718;2023-03-14T00:34:30;9.52;;;1.75;;
11189;SDS011;5651;50.926;4.718;2023-03-14T00:36:57;8.23;;;1.10;;
11189;SDS011;5651;50.926;4.718;2023-03-14T00:39:23;6.18;;;1.73;;
11189;SDS011;5651;50.926;4.718;2023-03-14T00:41:48;12.40;;;2.30;;
11189;SDS011;5651;50.926;4.718;2023-03-14T00:44:14;8.77;;;1.92;;
11189;SDS011;5651;50.926;4.718;2023-03-14T00:46:40;6.97;;;1.42;;
11189;SDS011;5651;50.926;4.718;2023-03-14T00:49:06;6.78;;;1.23;;
11189;SDS011;5651;50.926;4.718;2023-03-14T00:51:31;8.45;;;1.73;;
11189;SDS011;5651;50.926;4.718;2023-03-14T00:53:59;9.18;;;2.10;;
11189;SDS011;5651;50.926;4.718;2023-03-14T00:56:25;12.60;;;2.20;;
11189;SDS011;5651;50.926;4.718;2023-03-14T00:58:53;12.25;;;2.78;;
11189;SDS011;5651;50.926;4.718;2023-03-14T01:01:19;3.65;;;1.10;;
11189;SDS011;5651;50.926;4.718;2023-03-14T01:03:45;7.82;;;1.98;;
11189;SDS011;5651;50.926;4.718;2023-03-14T01:06:13;8.57;;;1.80;;
11189;SDS011;5651;50.926;4.718;2023-03-14T01:08:40;7.13;;;1.63;;
11189;SDS011;5651;50.926;4.718;2023-03-14T01:11:10;12.52;;;2.03;;
11189;SDS011;5651;50.926;4.718;2023-03-14T01:13:38;10.05;;;1.52;;
11189;SDS011;5651;50.926;4.718;2023-03-14T01:16:06;8.07;;;1.38;;
11189;SDS011;5651;50.926;4.718;2023-03-14T01:18:33;14.73;;;3.08;;
11189;SDS011;5651;50.926;4.718;2023-03-14T01:21:02;10.60;;;1.73;;
11189;SDS011;5651;50.926;4.718;2023-03-14T01:23:29;8.70;;;2.00;;
11189;SDS011;5651;50.926;4.718;2023-03-14T01:25:55;10.93;;;1.83;;
11189;SDS011;5651;50.926;4.718;2023-03-14T01:28:21;10.95;;;2.28;;
11189;SDS011;5651;50.926;4.718;2023-03-14T01:30:46;10.00;;;2.95;;
11189;SDS011;5651;50.926;4.718;2023-03-14T01:33:12;12.70;;;2.35;;
11189;SDS011;5651;50.926;4.718;2023-03-14T01:35:39;10.90;;;2.10;;
11189;SDS011;5651;50.926;4.718;2023-03-14T01:38:05;8.52;;;2.08;;
11189;SDS011;5651;50.926;4.718;2023-03-14T01:40:31;9.30;;;1.80;;
11189;SDS011;5651;50.926;4.718;2023-03-14T01:42:57;10.88;;;2.28;;
11189;SDS011;5651;50.926;4.718;2023-03-14T01:51:25;12.20;;;2.20;;
11189;SDS011;5651;50.926;4.718;2023-03-14T01:53:59;9.50;;;2.30;;
11189;SDS011;5651;50.926;4.718;2023-03-14T01:56:30;10.73;;;2.83;;
11189;SDS011;5651;50.926;4.718;2023-03-14T01:58:56;10.75;;;2.17;;
11189;SDS011;5651;50.926;4.718;2023-03-14T02:01:24;11.10;;;2.10;;
11189;SDS011;5651;50.926;4.718;2023-03-14T02:03:53;9.73;;;2.60;;
11189;SDS011;5651;50.926;4.718;2023-03-14T02:06:21;6.80;;;2.58;;
11189;SDS011;5651;50.926;4.718;2023-03-14T02:08:51;14.23;;;2.10;;
11189;SDS011;5651;50.926;4.718;2023-03-14T02:11:17;10.20;;;1.80;;
11189;SDS011;5651;50.926;4.718;2023-03-14T02:13:43;13.88;;;1.92;;
11189;SDS011;5651;50.926;4.718;2023-03-14T02:16:10;9.85;;;1.40;;
11189;SDS011;5651;50.926;4.718;2023-03-14T02:18:36;8.98;;;1.60;;
11189;SDS011;5651;50.926;4.718;2023-03-14T02:26:10;6.68;;;1.00;;
11189;SDS011;5651;50.926;4.718;2023-03-14T02:28:40;5.47;;;1.08;;
11189;SDS011;5651;50.926;4.718;2023-03-14T02:31:07;5.20;;;0.93;;
11189;SDS011;5651;50.926;4.718;2023-03-14T02:33:33;6.03;;;1.63;;
11189;SDS011;5651;50.926;4.718;2023-03-14T02:36:04;5.55;;;0.85;;
11189;SDS011;5651;50.926;4.718;2023-03-14T02:41:04;9.38;;;1.20;;
11189;SDS011;5651;50.926;4.718;2023-03-14T02:43:30;10.93;;;1.95;;
11189;SDS011;5651;50.926;4.718;2023-03-14T02:45:55;8.93;;;1.58;;
11189;SDS011;5651;50.926;4.718;2023-03-14T02:48:25;7.07;;;1.90;;
11189;SDS011;5651;50.926;4.718;2023-03-14T02:50:54;7.63;;;1.30;;
11189;SDS011;5651;50.926;4.718;2023-03-14T02:53:24;5.93;;;1.05;;
11189;SDS011;5651;50.926;4.718;2023-03-14T02:55:52;5.03;;;0.90;;
11189;SDS011;5651;50.926;4.718;2023-03-14T02:58:18;4.78;;;1.23;;
11189;SDS011;5651;50.926;4.718;2023-03-14T03:00:44;7.22;;;1.27;;
11189;SDS011;5651;50.926;4.718;2023-03-14T03:03:10;6.68;;;1.33;;
11189;SDS011;5651;50.926;4.718;2023-03-14T03:05:37;4.32;;;1.13;;
11189;SDS011;5651;50.926;4.718;2023-03-14T03:08:03;5.68;;;1.80;;
11189;SDS011;5651;50.926;4.718;2023-03-14T03:10:29;6.57;;;1.80;;
11189;SDS011;5651;50.926;4.718;2023-03-14T03:12:55;5.30;;;1.52;;
11189;SDS011;5651;50.926;4.718;2023-03-14T03:15:21;6.45;;;1.17;;
11189;SDS011;5651;50.926;4.718;2023-03-14T03:17:47;4.38;;;1.25;;
11189;SDS011;5651;50.926;4.718;2023-03-14T03:20:13;7.85;;;1.70;;
11189;SDS011;5651;50.926;4.718;2023-03-14T03:22:39;5.18;;;1.45;;
11189;SDS011;5651;50.926;4.718;2023-03-14T03:25:05;6.90;;;1.80;;
11189;SDS011;5651;50.926;4.718;2023-03-14T03:27:32;9.77;;;1.65;;
11189;SDS011;5651;50.926;4.718;2023-03-14T03:29:59;5.97;;;1.88;;
11189;SDS011;5651;50.926;4.718;2023-03-14T03:32:25;7.70;;;1.88;;
11189;SDS011;5651;50.926;4.718;2023-03-14T03:34:51;7.25;;;1.85;;
11189;SDS011;5651;50.926;4.718;2023-03-14T03:37:17;8.23;;;2.08;;
11189;SDS011;5651;50.926;4.718;2023-03-14T03:39:43;11.77;;;3.35;;
11189;SDS011;5651;50.926;4.718;2023-03-14T03:42:09;13.13;;;3.45;;
11189;SDS011;5651;50.926;4.718;2023-03-14T03:44:35;8.82;;;2.03;;
11189;SDS011;5651;50.926;4.718;2023-03-14T03:47:01;10.13;;;2.70;;
11189;SDS011;5651;50.926;4.718;2023-03-14T03:49:32;10.45;;;2.25;;
11189;SDS011;5651;50.926;4.718;2023-03-14T03:51:58;10.23;;;2.67;;
11189;SDS011;5651;50.926;4.718;2023-03-14T03:54:24;7.75;;;2.50;;
11189;SDS011;5651;50.926;4.718;2023-03-14T03:56:50;11.40;;;2.17;;
11189;SDS011;5651;50.926;4.718;2023-03-14T03:59:16;9.90;;;2.78;;
11189;SDS011;5651;50.926;4.718;2023-03-14T04:01:42;12.07;;;2.92;;
11189;SDS011;5651;50.926;4.718;2023-03-14T04:04:08;14.38;;;2.92;;
11189;SDS011;5651;50.926;4.718;2023-03-14T04:06:34;9.57;;;2.53;;
11189;SDS011;5651;50.926;4.718;2023-03-14T04:09:00;9.93;;;2.70;;
11189;SDS011;5651;50.926;4.718;2023-03-14T04:11:26;9.93;;;2.40;;
11189;SDS011;5651;50.926;4.718;2023-03-14T04:13:52;10.25;;;2.78;;
11189;SDS011;5651;50.926;4.718;2023-03-14T04:16:19;9.35;;;2.72;;
11189;SDS011;5651;50.926;4.718;2023-03-14T04:18:47;6.22;;;2.00;;
11189;SDS011;5651;50.926;4.718;2023-03-14T04:21:13;13.45;;;2.47;;
11189;SDS011;5651;50.926;4.718;2023-03-14T04:23:38;7.25;;;2.50;;
11189;SDS011;5651;50.926;4.718;2023-03-14T04:26:04;11.18;;;2.35;;
11189;SDS011;5651;50.926;4.718;2023-03-14T04:28:30;12.05;;;2.70;;
11189;SDS011;5651;50.926;4.718;2023-03-14T04:30:56;11.65;;;3.40;;
11189;SDS011;5651;50.926;4.718;2023-03-14T04:33:22;8.18;;;2.55;;
11189;SDS011;5651;50.926;4.718;2023-03-14T04:35:48;14.32;;;3.05;;
11189;SDS011;5651;50.926;4.718;2023-03-14T04:38:15;10.88;;;2.90;;
11189;SDS011;5651;50.926;4.718;2023-03-14T04:40:41;15.02;;;4.00;;
11189;SDS011;5651;50.926;4.718;2023-03-14T04:43:08;10.88;;;3.08;;
11189;SDS011;5651;50.926;4.718;2023-03-14T04:45:35;7.90;;;2.78;;
11189;SDS011;5651;50.926;4.718;2023-03-14T04:48:01;13.57;;;3.47;;
11189;SDS011;5651;50.926;4.718;2023-03-14T04:50:27;8.32;;;2.35;;
11189;SDS011;5651;50.926;4.718;2023-03-14T04:52:53;12.65;;;2.20;;
11189;SDS011;5651;50.926;4.718;2023-03-14T04:55:18;10.27;;;2.13;;
11189;SDS011;5651;50.926;4.718;2023-03-14T04:57:44;11.45;;;2.40;;
11189;SDS011;5651;50.926;4.718;2023-03-14T05:00:10;6.53;;;2.78;;
11189;SDS011;5651;50.926;4.718;2023-03-14T05:02:36;5.85;;;2.10;;
11189;SDS011;5651;50.926;4.718;2023-03-14T05:05:02;6.40;;;2.28;;
11189;SDS011;5651;50.926;4.718;2023-03-14T05:07:28;4.68;;;1.95;;
11189;SDS011;5651;50.926;4.718;2023-03-14T05:09:54;8.38;;;2.30;;
11189;SDS011;5651;50.926;4.718;2023-03-14T05:12:20;6.78;;;2.03;;
11189;SDS011;5651;50.926;4.718;2023-03-14T05:14:46;7.18;;;2.35;;
11189;SDS011;5651;50.926;4.718;2023-03-14T05:17:12;6.35;;;2.33;;
11189;SDS011;5651;50.926;4.718;2023-03-14T05:19:40;7.10;;;2.33;;
11189;SDS011;5651;50.926;4.718;2023-03-14T05:22:06;7.80;;;2.35;;
11189;SDS011;5651;50.926;4.718;2023-03-14T05:24:32;5.95;;;2.13;;
11189;SDS011;5651;50.926;4.718;2023-03-14T05:26:58;9.70;;;2.90;;
11189;SDS011;5651;50.926;4.718;2023-03-14T05:29:24;9.60;;;2.42;;
11189;SDS011;5651;50.926;4.718;2023-03-14T05:31:50;5.63;;;2.15;;
11189;SDS011;5651;50.926;4.718;2023-03-14T05:34:15;6.18;;;2.10;;
11189;SDS011;5651;50.926;4.718;2023-03-14T05:36:41;6.30;;;2.80;;
11189;SDS011;5651;50.926;4.718;2023-03-14T05:39:07;8.68;;;2.40;;
11189;SDS011;5651;50.926;4.718;2023-03-14T05:41:32;4.82;;;2.53;;
11189;SDS011;5651;50.926;4.718;2023-03-14T05:43:58;7.57;;;2.45;;
11189;SDS011;5651;50.926;4.718;2023-03-14T05:46:24;6.30;;;2.53;;
11189;SDS011;5651;50.926;4.718;2023-03-14T05:48:50;9.25;;;2.83;;
11189;SDS011;5651;50.926;4.718;2023-03-14T05:51:16;7.40;;;3.22;;
11189;SDS011;5651;50.926;4.718;2023-03-14T05:53:42;8.10;;;2.85;;
11189;SDS011;5651;50.926;4.718;2023-03-14T05:56:07;10.82;;;2.83;;
11189;SDS011;5651;50.926;4.718;2023-03-14T05:58:33;9.10;;;2.97;;
11189;SDS011;5651;50.926;4.718;2023-03-14T06:01:03;8.55;;;3.28;;
11189;SDS011;5651;50.926;4.718;2023-03-14T06:03:31;8.40;;;3.53;;
11189;SDS011;5651;50.926;4.718;2023-03-14T06:05:57;6.43;;;3.33;;
11189;SDS011;5651;50.926;4.718;2023-03-14T06:08:23;9.13;;;2.88;;
11189;SDS011;5651;50.926;4.718;2023-03-14T06:10:50;6.95;;;2.95;;
11189;SDS011;5651;50.926;4.718;2023-03-14T06:13:16;7.22;;;2.55;;
11189;SDS011;5651;50.926;4.718;2023-03-14T06:15:42;7.45;;;2.88;;
11189;SDS011;5651;50.926;4.718;2023-03-14T06:18:08;5.78;;;2.92;;
11189;SDS011;5651;50.926;4.718;2023-03-14T06:20:37;6.35;;;2.60;;
11189;SDS011;5651;50.926;4.718;2023-03-14T06:23:04;6.15;;;2.80;;
11189;SDS011;5651;50.926;4.718;2023-03-14T06:25:34;5.60;;;2.65;;
11189;SDS011;5651;50.926;4.718;2023-03-14T06:28:00;6.97;;;2.65;;
11189;SDS011;5651;50.926;4.718;2023-03-14T06:30:26;7.72;;;2.78;;
11189;SDS011;5651;50.926;4.718;2023-03-14T06:32:53;4.05;;;2.15;;
11189;SDS011;5651;50.926;4.718;2023-03-14T06:35:19;4.68;;;2.70;;
11189;SDS011;5651;50.926;4.718;2023-03-14T06:37:44;4.47;;;2.28;;
11189;SDS011;5651;50.926;4.718;2023-03-14T06:40:11;4.80;;;2.20;;
11189;SDS011;5651;50.926;4.718;2023-03-14T06:42:43;3.05;;;2.00;;
11189;SDS011;5651;50.926;4.718;2023-03-14T06:45:10;4.93;;;1.85;;
11189;SDS011;5651;50.926;4.718;2023-03-14T06:47:35;7.30;;;2.33;;
11189;SDS011;5651;50.926;4.718;2023-03-14T06:50:03;6.78;;;2.13;;
11189;SDS011;5651;50.926;4.718;2023-03-14T06:52:30;4.95;;;2.00;;
11189;SDS011;5651;50.926;4.718;2023-03-14T06:54:56;5.43;;;2.30;;
11189;SDS011;5651;50.926;4.718;2023-03-14T06:57:22;5.75;;;2.33;;
11189;SDS011;5651;50.926;4.718;2023-03-14T06:59:47;3.22;;;2.00;;
11189;SDS011;5651;50.926;4.718;2023-03-14T07:02:13;4.32;;;2.10;;
11189;SDS011;5651;50.926;4.718;2023-03-14T07:04:39;4.55;;;1.83;;
11189;SDS011;5651;50.926;4.718;2023-03-14T07:07:05;4.60;;;2.17;;
11189;SDS011;5651;50.926;4.718;2023-03-14T07:09:32;2.95;;;2.20;;
11189;SDS011;5651;50.926;4.718;2023-03-14T07:11:58;5.57;;;2.03;;
11189;SDS011;5651;50.926;4.718;2023-03-14T07:14:24;2.53;;;1.55;;
11189;SDS011;5651;50.926;4.718;2023-03-14T07:16:50;2.83;;;1.05;;
11189;SDS011;5651;50.926;4.718;2023-03-14T07:19:15;1.77;;;0.90;;
11189;SDS011;5651;50.926;4.718;2023-03-14T07:21:41;2.40;;;0.70;;
11189;SDS011;5651;50.926;4.718;2023-03-14T07:24:07;1.67;;;1.13;;
11189;SDS011;5651;50.926;4.718;2023-03-14T07:26:33;4.50;;;1.60;;
11189;SDS011;5651;50.926;4.718;2023-03-14T07:28:59;3.20;;;1.60;;
11189;SDS011;5651;50.926;4.718;2023-03-14T07:31:24;2.22;;;1.45;;
11189;SDS011;5651;50.926;4.718;2023-03-14T07:33:50;4.20;;;1.02;;
11189;SDS011;5651;50.926;4.718;2023-03-14T07:36:16;1.33;;;0.90;;
11189;SDS011;5651;50.926;4.718;2023-03-14T07:38:42;2.38;;;1.20;;
11189;SDS011;5651;50.926;4.718;2023-03-14T07:41:08;5.25;;;1.58;;
11189;SDS011;5651;50.926;4.718;2023-03-14T07:43:34;4.07;;;1.27;;
11189;SDS011;5651;50.926;4.718;2023-03-14T07:46:00;3.28;;;1.60;;
11189;SDS011;5651;50.926;4.718;2023-03-14T07:48:26;6.78;;;1.65;;
11189;SDS011;5651;50.926;4.718;2023-03-14T07:50:53;4.55;;;2.50;;
11189;SDS011;5651;50.926;4.718;2023-03-14T07:53:19;3.90;;;1.60;;
11189;SDS011;5651;50.926;4.718;2023-03-14T07:55:45;4.70;;;1.63;;
11189;SDS011;5651;50.926;4.718;2023-03-14T07:58:13;7.68;;;2.20;;
11189;SDS011;5651;50.926;4.718;2023-03-14T08:00:39;4.63;;;1.65;;
11189;SDS011;5651;50.926;4.718;2023-03-14T08:03:05;6.43;;;1.70;;
11189;SDS011;5651;50.926;4.718;2023-03-14T08:05:33;5.35;;;1.52;;
11189;SDS011;5651;50.926;4.718;2023-03-14T08:08:00;4.15;;;1.58;;
11189;SDS011;5651;50.926;4.718;2023-03-14T08:10:26;3.17;;;1.50;;
11189;SDS011;5651;50.926;4.718;2023-03-14T08:12:54;7.60;;;2.03;;
11189;SDS011;5651;50.926;4.718;2023-03-14T08:15:21;4.97;;;1.60;;
11189;SDS011;5651;50.926;4.718;2023-03-14T08:17:48;6.03;;;1.88;;
11189;SDS011;5651;50.926;4.718;2023-03-14T08:20:16;9.73;;;2.17;;
11189;SDS011;5651;50.926;4.718;2023-03-14T08:22:43;9.00;;;2.30;;
11189;SDS011;5651;50.926;4.718;2023-03-14T08:25:08;5.78;;;2.25;;
11189;SDS011;5651;50.926;4.718;2023-03-14T08:27:34;5.55;;;2.05;;
11189;SDS011;5651;50.926;4.718;2023-03-14T08:30:05;6.35;;;2.53;;
11189;SDS011;5651;50.926;4.718;2023-03-14T08:32:32;5.00;;;2.08;;
11189;SDS011;5651;50.926;4.718;2023-03-14T08:34:58;6.75;;;2.53;;
11189;SDS011;5651;50.926;4.718;2023-03-14T08:37:24;4.32;;;2.20;;
11189;SDS011;5651;50.926;4.718;2023-03-14T08:39:50;11.82;;;3.67;;
11189;SDS011;5651;50.926;4.718;2023-03-14T08:42:16;9.65;;;2.47;;
11189;SDS011;5651;50.926;4.718;2023-03-14T08:44:43;8.27;;;2.80;;
11189;SDS011;5651;50.926;4.718;2023-03-14T08:47:09;5.13;;;2.25;;
11189;SDS011;5651;50.926;4.718;2023-03-14T08:49:34;5.63;;;2.45;;
11189;SDS011;5651;50.926;4.718;2023-03-14T08:52:03;3.63;;;2.10;;
11189;SDS011;5651;50.926;4.718;2023-03-14T08:54:30;7.20;;;1.98;;
11189;SDS011;5651;50.926;4.718;2023-03-14T08:56:56;5.68;;;1.83;;
11189;SDS011;5651;50.926;4.718;2023-03-14T08:59:23;6.10;;;2.40;;
11189;SDS011;5651;50.926;4.718;2023-03-14T09:01:49;6.88;;;2.03;;
11189;SDS011;5651;50.926;4.718;2023-03-14T09:04:15;6.00;;;1.60;;
11189;SDS011;5651;50.926;4.718;2023-03-14T09:06:41;4.75;;;1.63;;
11189;SDS011;5651;50.926;4.718;2023-03-14T09:09:07;3.47;;;1.63;;
11189;SDS011;5651;50.926;4.718;2023-03-14T09:11:33;2.45;;;1.95;;
11189;SDS011;5651;50.926;4.718;2023-03-14T09:13:59;3.53;;;1.90;;
11189;SDS011;5651;50.926;4.718;2023-03-14T09:16:25;3.15;;;1.50;;
11189;SDS011;5651;50.926;4.718;2023-03-14T09:18:51;3.90;;;1.58;;
11189;SDS011;5651;50.926;4.718;2023-03-14T09:21:22;8.05;;;2.03;;
11189;SDS011;5651;50.926;4.718;2023-03-14T09:23:48;3.95;;;1.70;;
11189;SDS011;5651;50.926;4.718;2023-03-14T09:26:14;5.57;;;1.90;;
11189;SDS011;5651;50.926;4.718;2023-03-14T09:28:39;4.80;;;1.70;;
11189;SDS011;5651;50.926;4.718;2023-03-14T09:31:09;7.72;;;2.60;;
11189;SDS011;5651;50.926;4.718;2023-03-14T09:33:36;6.68;;;2.72;;
11189;SDS011;5651;50.926;4.718;2023-03-14T09:36:03;6.10;;;2.70;;
11189;SDS011;5651;50.926;4.718;2023-03-14T09:38:29;6.55;;;3.33;;
11189;SDS011;5651;50.926;4.718;2023-03-14T09:40:55;8.07;;;3.00;;
11189;SDS011;5651;50.926;4.718;2023-03-14T09:43:24;9.10;;;3.45;;
11189;SDS011;5651;50.926;4.718;2023-03-14T09:45:51;5.78;;;2.90;;
11189;SDS011;5651;50.926;4.718;2023-03-14T09:48:21;9.38;;;3.15;;
11189;SDS011;5651;50.926;4.718;2023-03-14T09:50:53;3.90;;;2.38;;
11189;SDS011;5651;50.926;4.718;2023-03-14T09:53:25;7.07;;;3.92;;
11189;SDS011;5651;50.926;4.718;2023-03-14T09:56:04;5.82;;;3.10;;
11189;SDS011;5651;50.926;4.718;2023-03-14T09:58:37;6.03;;;3.00;;
11189;SDS011;5651;50.926;4.718;2023-03-14T10:01:08;7.07;;;2.95;;
11189;SDS011;5651;50.926;4.718;2023-03-14T10:03:40;8.57;;;4.18;;
11189;SDS011;5651;50.926;4.718;2023-03-14T10:06:12;6.35;;;3.58;;
11189;SDS011;5651;50.926;4.718;2023-03-14T10:08:42;6.35;;;3.53;;
11189;SDS011;5651;50.926;4.718;2023-03-14T10:11:16;10.68;;;4.07;;
11189;SDS011;5651;50.926;4.718;2023-03-14T10:13:50;7.38;;;3.30;;
11189;SDS011;5651;50.926;4.718;2023-03-14T10:16:34;10.30;;;3.42;;
11189;SDS011;5651;50.926;4.718;2023-03-14T10:19:02;9.23;;;4.22;;
11189;SDS011;5651;50.926;4.718;2023-03-14T10:21:30;10.00;;;3.97;;
11189;SDS011;5651;50.926;4.718;2023-03-14T10:26:42;13.05;;;3.38;;
11189;SDS011;5651;50.926;4.718;2023-03-14T10:29:10;9.20;;;3.70;;
11189;SDS011;5651;50.926;4.718;2023-03-14T10:34:45;11.18;;;3.60;;
11189;SDS011;5651;50.926;4.718;2023-03-14T10:37:29;4.93;;;2.20;;
11189;SDS011;5651;50.926;4.718;2023-03-14T10:39:55;4.57;;;2.55;;
11189;SDS011;5651;50.926;4.718;2023-03-14T10:42:39;8.07;;;2.65;;
11189;SDS011;5651;50.926;4.718;2023-03-14T10:45:30;6.70;;;2.28;;
11189;SDS011;5651;50.926;4.718;2023-03-14T10:48:06;6.70;;;2.40;;
11189;SDS011;5651;50.926;4.718;2023-03-14T10:50:57;4.90;;;1.52;;
11189;SDS011;5651;50.926;4.718;2023-03-14T10:53:44;6.43;;;1.70;;
11189;SDS011;5651;50.926;4.718;2023-03-14T10:56:18;8.32;;;1.88;;
11189;SDS011;5651;50.926;4.718;2023-03-14T10:58:50;3.00;;;1.10;;
11189;SDS011;5651;50.926;4.718;2023-03-14T11:01:23;4.72;;;1.98;;
11189;SDS011;5651;50.926;4.718;2023-03-14T11:15:19;0.90;;;0.70;;
11189;SDS011;5651;50.926;4.718;2023-03-14T11:18:28;2.20;;;0.90;;
11189;SDS011;5651;50.926;4.718;2023-03-14T11:29:55;0.73;;;0.57;;
11189;SDS011;5651;50.926;4.718;2023-03-14T11:32:59;2.50;;;1.17;;
11189;SDS011;5651;50.926;4.718;2023-03-14T11:35:33;4.25;;;2.20;;
11189;SDS011;5651;50.926;4.718;2023-03-14T11:40:28;1.60;;;1.02;;
11189;SDS011;5651;50.926;4.718;2023-03-14T11:43:09;1.48;;;1.15;;
11189;SDS011;5651;50.926;4.718;2023-03-14T11:45:43;2.45;;;1.55;;
11189;SDS011;5651;50.926;4.718;2023-03-14T11:48:15;2.42;;;0.90;;
11189;SDS011;5651;50.926;4.718;2023-03-14T11:50:49;2.83;;;1.15;;
11189;SDS011;5651;50.926;4.718;2023-03-14T11:55:56;3.28;;;1.40;;
11189;SDS011;5651;50.926;4.718;2023-03-14T11:58:29;3.88;;;1.40;;
11189;SDS011;5651;50.926;4.718;2023-03-14T12:01:01;4.32;;;1.42;;
11189;SDS011;5651;50.926;4.718;2023-03-14T12:03:45;2.05;;;1.20;;
11189;SDS011;5651;50.926;4.718;2023-03-14T12:09:01;2.15;;;0.75;;
11189;SDS011;5651;50.926;4.718;2023-03-14T12:14:26;3.08;;;1.10;;
11189;SDS011;5651;50.926;4.718;2023-03-14T12:16:54;1.40;;;0.90;;
11189;SDS011;5651;50.926;4.718;2023-03-14T12:21:50;2.28;;;1.33;;
11189;SDS011;5651;50.926;4.718;2023-03-14T12:24:19;3.33;;;1.50;;
11189;SDS011;5651;50.926;4.718;2023-03-14T12:26:54;2.65;;;1.45;;
11189;SDS011;5651;50.926;4.718;2023-03-14T12:29:22;2.80;;;1.50;;
11189;SDS011;5651;50.926;4.718;2023-03-14T12:31:48;3.22;;;1.40;;
11189;SDS011;5651;50.926;4.718;2023-03-14T12:42:35;7.03;;;1.38;;
11189;SDS011;5651;50.926;4.718;2023-03-14T12:47:55;8.88;;;1.83;;
11189;SDS011;5651;50.926;4.718;2023-03-14T12:50:31;6.30;;;2.08;;
11189;SDS011;5651;50.926;4.718;2023-03-14T12:55:33;9.60;;;1.55;;
11189;SDS011;5651;50.926;4.718;2023-03-14T12:58:15;8.82;;;2.45;;
11189;SDS011;5651;50.926;4.718;2023-03-14T13:00:54;6.53;;;2.00;;
11189;SDS011;5651;50.926;4.718;2023-03-14T13:03:23;6.82;;;1.60;;
11189;SDS011;5651;50.926;4.718;2023-03-14T13:05:53;9.55;;;2.25;;
11189;SDS011;5651;50.926;4.718;2023-03-14T13:11:09;8.82;;;1.90;;
11189;SDS011;5651;50.926;4.718;2023-03-14T13:13:41;6.53;;;1.65;;
11189;SDS011;5651;50.926;4.718;2023-03-14T13:16:14;16.95;;;4.85;;
11189;SDS011;5651;50.926;4.718;2023-03-14T13:18:48;18.15;;;4.43;;
11189;SDS011;5651;50.926;4.718;2023-03-14T13:21:20;14.20;;;3.85;;
11189;SDS011;5651;50.926;4.718;2023-03-14T13:23:55;10.15;;;2.50;;
11189;SDS011;5651;50.926;4.718;2023-03-14T13:26:32;6.47;;;1.58;;
11189;SDS011;5651;50.926;4.718;2023-03-14T13:29:08;7.17;;;1.90;;
11189;SDS011;5651;50.926;4.718;2023-03-14T13:31:41;7.93;;;1.73;;
11189;SDS011;5651;50.926;4.718;2023-03-14T13:34:10;6.60;;;2.10;;
11189;SDS011;5651;50.926;4.718;2023-03-14T13:36:36;13.02;;;2.80;;
11189;SDS011;5651;50.926;4.718;2023-03-14T13:39:02;10.30;;;2.13;;
11189;SDS011;5651;50.926;4.718;2023-03-14T13:41:31;7.38;;;1.63;;
11189;SDS011;5651;50.926;4.718;2023-03-14T13:43:58;19.65;;;3.95;;
11189;SDS011;5651;50.926;4.718;2023-03-14T13:46:31;10.80;;;2.20;;
11189;SDS011;5651;50.926;4.718;2023-03-14T13:49:03;12.43;;;3.15;;
11189;SDS011;5651;50.926;4.718;2023-03-14T13:51:31;10.43;;;2.08;;
11189;SDS011;5651;50.926;4.718;2023-03-14T13:53:58;17.63;;;2.88;;
11189;SDS011;5651;50.926;4.718;2023-03-14T13:56:26;10.68;;;2.35;;
11189;SDS011;5651;50.926;4.718;2023-03-14T13:58:53;7.43;;;2.40;;
11189;SDS011;5651;50.926;4.718;2023-03-14T14:03:48;10.40;;;2.53;;
11189;SDS011;5651;50.926;4.718;2023-03-14T14:06:29;12.95;;;3.33;;
11189;SDS011;5651;50.926;4.718;2023-03-14T14:09:16;12.35;;;2.92;;
11189;SDS011;5651;50.926;4.718;2023-03-14T14:11:50;14.48;;;3.17;;
11189;SDS011;5651;50.926;4.718;2023-03-14T14:14:39;6.95;;;2.67;;
11189;SDS011;5651;50.926;4.718;2023-03-14T14:17:10;10.32;;;2.55;;
11189;SDS011;5651;50.926;4.718;2023-03-14T14:19:40;16.48;;;2.90;;
11189;SDS011;5651;50.926;4.718;2023-03-14T14:22:08;12.27;;;3.20;;
11189;SDS011;5651;50.926;4.718;2023-03-14T14:24:35;13.57;;;3.03;;
11189;SDS011;5651;50.926;4.718;2023-03-14T14:27:48;13.80;;;2.28;;
11189;SDS011;5651;50.926;4.718;2023-03-14T14:30:04;16.90;;;2.80;;
11189;SDS011;5651;50.926;4.718;2023-03-14T14:32:38;14.45;;;3.08;;
11189;SDS011;5651;50.926;4.718;2023-03-14T14:37:32;9.07;;;2.38;;
11189;SDS011;5651;50.926;4.718;2023-03-14T14:40:05;11.07;;;2.40;;
11189;SDS011;5651;50.926;4.718;2023-03-14T14:42:33;7.93;;;2.42;;
11189;SDS011;5651;50.926;4.718;2023-03-14T14:44:59;17.80;;;2.60;;
11189;SDS011;5651;50.926;4.718;2023-03-14T14:47:28;12.13;;;2.95;;
11189;SDS011;5651;50.926;4.718;2023-03-14T14:49:55;18.67;;;3.22;;
11189;SDS011;5651;50.926;4.718;2023-03-14T14:55:13;17.63;;;3.83;;
11189;SDS011;5651;50.926;4.718;2023-03-14T14:57:51;10.80;;;2.97;;
11189;SDS011;5651;50.926;4.718;2023-03-14T15:00:25;9.55;;;2.95;;
11189;SDS011;5651;50.926;4.718;2023-03-14T15:02:58;6.38;;;1.40;;
11189;SDS011;5651;50.926;4.718;2023-03-14T15:05:25;3.83;;;1.25;;
11189;SDS011;5651;50.926;4.718;2023-03-14T15:07:53;5.13;;;1.13;;
11189;SDS011;5651;50.926;4.718;2023-03-14T15:10:20;7.38;;;1.10;;
11189;SDS011;5651;50.926;4.718;2023-03-14T15:12:48;4.38;;;1.13;;
11189;SDS011;5651;50.926;4.718;2023-03-14T15:15:14;4.75;;;1.00;;
11189;SDS011;5651;50.926;4.718;2023-03-14T15:17:40;5.25;;;1.20;;
11189;SDS011;5651;50.926;4.718;2023-03-14T15:20:09;5.93;;;1.00;;
11189;SDS011;5651;50.926;4.718;2023-03-14T15:22:38;5.70;;;1.13;;
11189;SDS011;5651;50.926;4.718;2023-03-14T15:25:05;5.65;;;1.25;;
11189;SDS011;5651;50.926;4.718;2023-03-14T15:27:31;5.03;;;1.20;;
11189;SDS011;5651;50.926;4.718;2023-03-14T15:29:58;8.07;;;1.30;;
11189;SDS011;5651;50.926;4.718;2023-03-14T15:32:24;7.05;;;1.10;;
11189;SDS011;5651;50.926;4.718;2023-03-14T15:34:53;7.13;;;1.30;;
11189;SDS011;5651;50.926;4.718;2023-03-14T15:37:20;8.23;;;1.95;;
11189;SDS011;5651;50.926;4.718;2023-03-14T15:39:46;5.25;;;1.25;;
11189;SDS011;5651;50.926;4.718;2023-03-14T15:42:12;3.70;;;1.23;;
11189;SDS011;5651;50.926;4.718;2023-03-14T15:44:38;4.88;;;1.23;;
11189;SDS011;5651;50.926;4.718;2023-03-14T15:47:08;5.63;;;1.27;;
11189;SDS011;5651;50.926;4.718;2023-03-14T15:49:35;11.13;;;1.55;;
11189;SDS011;5651;50.926;4.718;2023-03-14T15:52:01;6.25;;;1.25;;
11189;SDS011;5651;50.926;4.718;2023-03-14T15:54:28;7.05;;;1.95;;
11189;SDS011;5651;50.926;4.718;2023-03-14T15:56:54;7.30;;;1.20;;
11189;SDS011;5651;50.926;4.718;2023-03-14T15:59:21;6.40;;;1.38;;
11189;SDS011;5651;50.926;4.718;2023-03-14T16:01:47;5.85;;;1.20;;
11189;SDS011;5651;50.926;4.718;2023-03-14T16:04:15;9.05;;;1.60;;
11189;SDS011;5651;50.926;4.718;2023-03-14T16:06:41;3.25;;;1.30;;
11189;SDS011;5651;50.926;4.718;2023-03-14T16:09:10;4.72;;;1.50;;
11189;SDS011;5651;50.926;4.718;2023-03-14T16:11:36;9.15;;;2.33;;
11189;SDS011;5651;50.926;4.718;2023-03-14T16:14:02;9.48;;;2.20;;
11189;SDS011;5651;50.926;4.718;2023-03-14T16:16:28;7.05;;;1.80;;
11189;SDS011;5651;50.926;4.718;2023-03-14T16:18:54;6.70;;;2.58;;
11189;SDS011;5651;50.926;4.718;2023-03-14T16:21:20;6.93;;;1.88;;